Time;durP1;ratioP1;P1;durP2;ratioP2;P2;SDS_P1;SDS_P2;PMS_P1;PMS_P2;Temp;Humidity;BMP_temperature;BMP_pressure;BME280_temperature;BME280_humidity;BME280_pressure;Samples;Min_cycle;Max_cycle;Signal;HPM_P1;HPM_P2
2023/09/28 00:00:38;;;;;;;7.40;3.30;;;;;;;;;;5048010;28;20047;-61
2023/09/28 00:03:05;;;;;;;7.25;2.88;;;;;;;;;;5045256;28;20036;-62
2023/09/28 00:05:31;;;;;;;4.85;2.50;;;;;;;;;;5045778;28;20136;-61
2023/09/28 00:07:57;;;;;;;6.07;3.03;;;;;;;;;;5045112;28;20155;-62
2023/09/28 00:10:23;;;;;;;5.20;2.45;;;;;;;;;;5045726;28;20031;-61
2023/09/28 00:12:49;;;;;;;5.95;3.00;;;;;;;;;;5043916;28;20497;-63
2023/09/28 00:15:15;;;;;;;4.13;2.80;;;;;;;;;;5055675;28;20044;-61
2023/09/28 00:17:41;;;;;;;6.80;2.97;;;;;;;;;;5065625;28;20068;-62
2023/09/28 00:20:13;;;;;;;7.03;3.10;;;;;;;;;;5069287;28;20499;-62
2023/09/28 00:22:41;;;;;;;8.07;2.97;;;;;;;;;;5048816;28;20033;-62
2023/09/28 00:25:10;;;;;;;5.75;2.67;;;;;;;;;;5048378;28;20123;-64
2023/09/28 00:27:36;;;;;;;9.00;3.10;;;;;;;;;;5054736;28;20048;-67
2023/09/28 00:30:03;;;;;;;7.40;2.97;;;;;;;;;;5048243;28;20075;-61
2023/09/28 00:32:28;;;;;;;7.40;2.80;;;;;;;;;;5054161;28;20033;-61
2023/09/28 00:34:53;;;;;;;7.27;3.07;;;;;;;;;;5045549;28;20143;-66
2023/09/28 00:37:19;;;;;;;6.20;2.90;;;;;;;;;;5027104;28;20349;-62
2023/09/28 00:39:44;;;;;;;6.10;3.07;;;;;;;;;;5045236;28;20271;-61
2023/09/28 00:42:09;;;;;;;6.37;2.80;;;;;;;;;;5054555;28;20291;-62
2023/09/28 00:44:34;;;;;;;4.93;2.67;;;;;;;;;;5043015;28;20340;-62
2023/09/28 00:47:02;;;;;;;6.93;2.77;;;;;;;;;;5044920;28;20057;-62
2023/09/28 00:49:27;;;;;;;4.05;2.67;;;;;;;;;;5044591;28;20275;-62
2023/09/28 00:51:52;;;;;;;8.13;3.03;;;;;;;;;;5043938;28;20036;-62
2023/09/28 00:54:17;;;;;;;7.77;2.80;;;;;;;;;;5051412;28;20271;-62
2023/09/28 00:56:42;;;;;;;7.20;2.83;;;;;;;;;;5044332;28;20393;-61
2023/09/28 00:59:08;;;;;;;5.23;2.70;;;;;;;;;;5064870;28;20283;-61
2023/09/28 01:01:33;;;;;;;6.13;2.90;;;;;;;;;;5054351;28;20286;-61
2023/09/28 01:04:04;;;;;;;4.13;2.70;;;;;;;;;;5043858;28;20288;-63
2023/09/28 01:06:30;;;;;;;6.80;3.08;;;;;;;;;;5046308;28;20210;-62
2023/09/28 01:08:56;;;;;;;4.60;2.50;;;;;;;;;;5045043;28;20048;-63
2023/09/28 01:11:22;;;;;;;5.88;2.70;;;;;;;;;;5043422;28;20029;-62
2023/09/28 01:13:47;;;;;;;8.23;2.70;;;;;;;;;;5054121;28;20039;-61
2023/09/28 01:16:13;;;;;;;5.35;2.78;;;;;;;;;;5045132;28;20271;-61
2023/09/28 01:18:38;;;;;;;5.70;2.63;;;;;;;;;;5042645;28;20045;-63
2023/09/28 01:21:05;;;;;;;6.40;2.85;;;;;;;;;;5043676;28;20032;-62
2023/09/28 01:23:30;;;;;;;6.25;2.83;;;;;;;;;;5044335;28;20501;-62
2023/09/28 01:25:56;;;;;;;7.55;3.05;;;;;;;;;;5044925;28;20047;-63
2023/09/28 01:28:21;;;;;;;7.63;2.75;;;;;;;;;;5043830;28;20044;-62
2023/09/28 01:30:46;;;;;;;5.55;2.70;;;;;;;;;;5043987;28;20033;-61
2023/09/28 01:33:12;;;;;;;8.13;3.03;;;;;;;;;;5044563;28;20507;-63
2023/09/28 01:35:38;;;;;;;7.55;2.88;;;;;;;;;;5039292;28;20079;-62
2023/09/28 01:38:09;;;;;;;8.33;3.07;;;;;;;;;;5047629;28;20045;-60
2023/09/28 01:40:34;;;;;;;4.22;2.55;;;;;;;;;;5048612;28;20811;-61
2023/09/28 01:43:00;;;;;;;9.20;2.85;;;;;;;;;;5048413;28;20095;-62
2023/09/28 01:45:25;;;;;;;5.35;3.00;;;;;;;;;;5053679;28;20073;-62
2023/09/28 01:47:50;;;;;;;7.33;3.17;;;;;;;;;;5048799;28;20057;-63
2023/09/28 01:50:15;;;;;;;5.27;3.00;;;;;;;;;;5049001;28;20291;-62
2023/09/28 01:52:41;;;;;;;6.90;2.77;;;;;;;;;;5029164;28;20631;-62
2023/09/28 01:55:06;;;;;;;6.50;3.03;;;;;;;;;;5048477;28;20279;-61
2023/09/28 01:57:31;;;;;;;6.07;2.83;;;;;;;;;;5048380;28;20664;-61
2023/09/28 01:59:57;;;;;;;7.78;2.75;;;;;;;;;;5048178;28;20472;-62
2023/09/28 02:02:22;;;;;;;6.55;3.08;;;;;;;;;;5048696;28;20083;-61
2023/09/28 02:04:47;;;;;;;4.87;2.60;;;;;;;;;;5044310;28;20045;-61
2023/09/28 02:07:13;;;;;;;6.60;2.53;;;;;;;;;;5047662;28;20043;-62
2023/09/28 02:09:38;;;;;;;4.65;2.50;;;;;;;;;;5047843;28;20413;-61
2023/09/28 02:12:03;;;;;;;5.60;2.70;;;;;;;;;;5046640;28;20036;-62
2023/09/28 02:14:29;;;;;;;7.63;2.80;;;;;;;;;;5047235;28;20611;-62
2023/09/28 02:16:54;;;;;;;7.80;3.25;;;;;;;;;;5047377;28;20033;-61
2023/09/28 02:19:19;;;;;;;4.97;2.60;;;;;;;;;;5056788;28;20032;-62
2023/09/28 02:21:44;;;;;;;4.60;2.50;;;;;;;;;;5052928;28;20275;-61
2023/09/28 02:24:10;;;;;;;6.43;2.65;;;;;;;;;;5048398;28;20029;-60
2023/09/28 02:26:35;;;;;;;5.03;2.80;;;;;;;;;;5046716;28;20044;-60
2023/09/28 02:29:00;;;;;;;8.98;3.10;;;;;;;;;;5047716;28;20120;-61
2023/09/28 02:31:27;;;;;;;5.93;3.10;;;;;;;;;;5047416;28;20037;-60
2023/09/28 02:33:53;;;;;;;6.13;2.67;;;;;;;;;;5053318;28;20468;-61
2023/09/28 02:36:18;;;;;;;7.53;3.10;;;;;;;;;;5048542;28;20051;-60
2023/09/28 02:38:43;;;;;;;5.65;2.95;;;;;;;;;;5047376;28;20056;-60
2023/09/28 02:41:18;;;;;;;4.93;3.00;;;;;;;;;;5046243;28;20060;-61
2023/09/28 02:43:43;;;;;;;5.38;2.75;;;;;;;;;;5053080;28;20052;-60
2023/09/28 02:46:09;;;;;;;6.10;2.97;;;;;;;;;;5045817;28;20479;-61
2023/09/28 02:48:34;;;;;;;10.10;3.27;;;;;;;;;;5057821;28;20134;-60
2023/09/28 02:51:00;;;;;;;4.63;3.23;;;;;;;;;;5065620;28;20288;-62
2023/09/28 02:53:26;;;;;;;8.63;3.60;;;;;;;;;;5057985;28;20302;-62
2023/09/28 02:55:51;;;;;;;6.15;3.22;;;;;;;;;;5046960;28;20128;-62
2023/09/28 02:58:17;;;;;;;6.40;3.33;;;;;;;;;;5046837;28;20132;-60
2023/09/28 03:00:42;;;;;;;4.07;2.90;;;;;;;;;;5046673;28;20275;-60
2023/09/28 03:03:09;;;;;;;4.93;2.90;;;;;;;;;;5046449;28;20782;-61
2023/09/28 03:05:37;;;;;;;5.05;3.00;;;;;;;;;;5049995;28;20283;-60
2023/09/28 03:08:04;;;;;;;5.60;3.45;;;;;;;;;;5047036;28;20041;-61
2023/09/28 03:10:30;;;;;;;4.50;2.97;;;;;;;;;;5061817;28;20028;-60
2023/09/28 03:12:57;;;;;;;5.78;3.10;;;;;;;;;;5062599;28;20120;-62
2023/09/28 03:15:22;;;;;;;7.82;3.17;;;;;;;;;;5046527;28;20098;-61
2023/09/28 03:17:47;;;;;;;7.53;3.10;;;;;;;;;;5046311;28;20056;-60
2023/09/28 03:20:17;;;;;;;4.90;3.20;;;;;;;;;;5046676;28;20275;-61
2023/09/28 03:22:43;;;;;;;;;;;;;;;;;;5046994;28;20480;-60
2023/09/28 03:25:16;;;;;;;5.68;3.35;;;;;;;;;;5044910;28;19913;-60
2023/09/28 03:27:41;;;;;;;7.55;3.00;;;;;;;;;;5056589;28;20509;-61
2023/09/28 03:30:10;;;;;;;4.80;2.85;;;;;;;;;;5066409;28;20028;-61
2023/09/28 03:32:38;;;;;;;6.63;3.40;;;;;;;;;;5066466;28;20748;-61
2023/09/28 03:35:08;;;;;;;6.78;2.80;;;;;;;;;;5049927;28;20154;-60
2023/09/28 03:37:34;;;;;;;;;;;;;;;;;;5046753;28;20033;-60
2023/09/28 03:40:00;;;;;;;8.38;3.05;;;;;;;;;;5049003;28;19905;-60
2023/09/28 03:42:26;;;;;;;6.32;3.22;;;;;;;;;;5046280;28;20025;-61
2023/09/28 03:44:52;;;;;;;4.97;2.90;;;;;;;;;;5044645;28;20116;-62
2023/09/28 03:47:17;;;;;;;6.60;3.13;;;;;;;;;;5045695;28;20523;-60
2023/09/28 03:49:42;;;;;;;6.73;3.33;;;;;;;;;;5046103;28;20017;-60
2023/09/28 03:52:08;;;;;;;7.20;3.17;;;;;;;;;;5045971;28;20283;-60
2023/09/28 03:54:34;;;;;;;4.82;3.05;;;;;;;;;;5045563;28;20616;-60
2023/09/28 03:56:59;;;;;;;5.10;3.28;;;;;;;;;;5045759;28;20009;-61
2023/09/28 03:59:25;;;;;;;5.20;3.27;;;;;;;;;;5045923;28;20092;-61
2023/09/28 04:01:50;;;;;;;8.93;3.45;;;;;;;;;;5038881;28;20833;-60
2023/09/28 04:04:16;;;;;;;8.07;3.42;;;;;;;;;;5045138;28;20031;-60
2023/09/28 04:06:41;;;;;;;6.88;3.40;;;;;;;;;;5045355;28;20025;-61
2023/09/28 04:09:07;;;;;;;6.80;3.20;;;;;;;;;;5045335;28;20039;-60
2023/09/28 04:11:32;;;;;;;6.78;3.38;;;;;;;;;;5045299;28;20266;-62
2023/09/28 04:13:58;;;;;;;9.60;3.43;;;;;;;;;;5045378;28;22467;-60
2023/09/28 04:16:23;;;;;;;6.47;3.83;;;;;;;;;;5044361;28;20784;-61
2023/09/28 04:18:48;;;;;;;7.73;3.50;;;;;;;;;;5051155;28;20469;-61
2023/09/28 04:21:13;;;;;;;7.70;3.75;;;;;;;;;;5057486;28;20337;-61
2023/09/28 04:23:39;;;;;;;7.20;3.50;;;;;;;;;;5043453;28;20041;-61
2023/09/28 04:26:05;;;;;;;8.20;3.70;;;;;;;;;;5045157;28;20574;-60
2023/09/28 04:28:30;;;;;;;5.82;3.78;;;;;;;;;;5043586;28;20057;-60
2023/09/28 04:30:55;;;;;;;9.13;3.65;;;;;;;;;;5044850;28;20068;-60
2023/09/28 04:33:21;;;;;;;6.55;3.80;;;;;;;;;;5044477;28;20071;-61
2023/09/28 04:35:46;;;;;;;4.97;3.80;;;;;;;;;;5045777;28;20416;-61
2023/09/28 04:38:11;;;;;;;9.35;3.92;;;;;;;;;;5051224;28;20298;-60
2023/09/28 04:40:37;;;;;;;7.17;4.03;;;;;;;;;;5059578;28;20032;-60
2023/09/28 04:43:03;;;;;;;6.22;3.45;;;;;;;;;;5044855;28;20036;-61
2023/09/28 04:45:28;;;;;;;5.35;3.50;;;;;;;;;;5043553;28;20268;-60
2023/09/28 04:47:54;;;;;;;6.70;3.60;;;;;;;;;;5044385;28;20280;-59
2023/09/28 04:50:20;;;;;;;6.63;4.15;;;;;;;;;;5044658;28;20048;-61
2023/09/28 04:52:46;;;;;;;8.07;3.60;;;;;;;;;;5045404;28;20048;-62
2023/09/28 04:55:11;;;;;;;5.60;3.50;;;;;;;;;;5049629;28;20063;-61
2023/09/28 04:57:36;;;;;;;7.78;3.75;;;;;;;;;;5044494;28;20063;-61
2023/09/28 05:00:06;;;;;;;7.10;3.70;;;;;;;;;;5043191;28;20264;-60
2023/09/28 05:02:31;;;;;;;8.00;3.95;;;;;;;;;;5037917;28;20429;-60
2023/09/28 05:04:57;;;;;;;7.25;3.78;;;;;;;;;;5044028;28;20037;-60
2023/09/28 05:07:22;;;;;;;8.60;4.40;;;;;;;;;;5044705;28;20037;-61
2023/09/28 05:09:47;;;;;;;9.05;4.40;;;;;;;;;;5044242;28;20743;-60
2023/09/28 05:12:12;;;;;;;9.27;4.43;;;;;;;;;;5043980;28;20438;-60
2023/09/28 05:14:38;;;;;;;9.50;4.33;;;;;;;;;;5044512;28;20044;-60
2023/09/28 05:17:03;;;;;;;11.05;5.10;;;;;;;;;;5044323;28;20288;-59
2023/09/28 05:19:30;;;;;;;9.13;4.80;;;;;;;;;;5043951;28;20067;-60
2023/09/28 05:21:55;;;;;;;14.20;4.30;;;;;;;;;;5051289;28;20596;-60
2023/09/28 05:24:20;;;;;;;9.80;4.78;;;;;;;;;;5052667;28;20047;-60
2023/09/28 05:26:46;;;;;;;10.43;4.78;;;;;;;;;;5055468;28;20060;-59
2023/09/28 05:29:11;;;;;;;7.50;3.70;;;;;;;;;;5056891;28;20051;-60
2023/09/28 05:31:36;;;;;;;7.67;4.33;;;;;;;;;;5062711;28;20140;-60
2023/09/28 05:34:02;;;;;;;12.47;4.20;;;;;;;;;;5054404;28;20348;-59
2023/09/28 05:36:27;;;;;;;9.52;4.13;;;;;;;;;;5046797;28;20283;-60
2023/09/28 05:38:52;;;;;;;7.75;4.38;;;;;;;;;;5044358;28;20520;-59
2023/09/28 05:41:18;;;;;;;9.25;4.45;;;;;;;;;;5043075;28;20099;-61
2023/09/28 05:43:43;;;;;;;8.17;4.00;;;;;;;;;;5038428;28;20064;-61
2023/09/28 05:46:09;;;;;;;8.85;4.40;;;;;;;;;;5039410;28;20293;-62
2023/09/28 05:48:34;;;;;;;11.18;3.88;;;;;;;;;;5042401;28;20037;-61
2023/09/28 05:50:59;;;;;;;8.90;3.85;;;;;;;;;;5042522;28;20045;-61
2023/09/28 05:53:25;;;;;;;8.23;4.00;;;;;;;;;;5041864;28;20052;-61
2023/09/28 05:55:51;;;;;;;11.10;4.30;;;;;;;;;;5044299;28;20289;-63
2023/09/28 05:58:16;;;;;;;7.78;4.07;;;;;;;;;;5043903;28;20291;-62
2023/09/28 06:00:41;;;;;;;8.03;3.50;;;;;;;;;;5043894;28;20037;-62
2023/09/28 06:03:07;;;;;;;13.07;3.90;;;;;;;;;;5053500;28;20774;-62
2023/09/28 06:05:32;;;;;;;10.45;3.70;;;;;;;;;;5042684;28;20502;-63
2023/09/28 06:07:58;;;;;;;7.97;4.77;;;;;;;;;;5047317;28;20086;-63
2023/09/28 06:10:23;;;;;;;7.35;3.97;;;;;;;;;;5047700;28;20652;-65
2023/09/28 06:12:48;;;;;;;12.27;3.70;;;;;;;;;;5042568;28;20098;-62
2023/09/28 06:15:14;;;;;;;7.37;3.47;;;;;;;;;;5038364;28;20268;-61
2023/09/28 06:17:39;;;;;;;6.82;3.17;;;;;;;;;;5044427;28;20403;-63
2023/09/28 06:20:05;;;;;;;8.90;3.17;;;;;;;;;;5044390;28;20029;-62
2023/09/28 06:22:30;;;;;;;12.00;3.05;;;;;;;;;;5047333;28;20428;-62
2023/09/28 06:24:55;;;;;;;9.67;3.10;;;;;;;;;;5048844;28;20423;-63
2023/09/28 06:27:21;;;;;;;8.88;3.67;;;;;;;;;;5046856;28;20271;-62
2023/09/28 06:29:52;;;;;;;10.63;3.75;;;;;;;;;;5046022;28;20094;-64
2023/09/28 06:32:18;;;;;;;5.13;2.70;;;;;;;;;;5047165;28;20060;-66
2023/09/28 06:34:44;;;;;;;7.47;2.83;;;;;;;;;;5046936;28;20068;-62
2023/09/28 06:37:09;;;;;;;8.75;3.15;;;;;;;;;;5051021;28;20124;-64
2023/09/28 06:39:35;;;;;;;7.10;2.83;;;;;;;;;;5049952;28;20037;-62
2023/09/28 06:42:00;;;;;;;6.97;3.08;;;;;;;;;;5045640;28;20158;-63
2023/09/28 06:44:26;;;;;;;9.65;3.08;;;;;;;;;;5042127;28;20041;-63
2023/09/28 06:46:52;;;;;;;7.90;3.25;;;;;;;;;;5041411;28;20033;-65
2023/09/28 06:49:17;;;;;;;7.20;3.00;;;;;;;;;;5044680;28;20037;-61
2023/09/28 06:51:42;;;;;;;10.17;3.03;;;;;;;;;;5040085;28;20820;-63
2023/09/28 06:54:08;;;;;;;6.30;3.30;;;;;;;;;;5050361;28;20298;-62
2023/09/28 06:56:35;;;;;;;6.63;2.85;;;;;;;;;;5045431;28;20275;-62
2023/09/28 06:59:00;;;;;;;9.13;3.20;;;;;;;;;;5043359;28;20045;-62
2023/09/28 07:01:26;;;;;;;7.88;3.17;;;;;;;;;;5044216;28;20419;-60
2023/09/28 07:03:52;;;;;;;8.20;3.40;;;;;;;;;;5028382;28;20555;-61
2023/09/28 07:06:21;;;;;;;7.65;3.17;;;;;;;;;;5045867;28;20124;-63
2023/09/28 07:08:46;;;;;;;6.10;2.70;;;;;;;;;;5050509;28;20049;-62
2023/09/28 07:11:11;;;;;;;8.77;2.90;;;;;;;;;;5044747;28;20041;-61
2023/09/28 07:13:37;;;;;;;7.90;3.00;;;;;;;;;;5042990;28;20037;-61
2023/09/28 07:16:02;;;;;;;9.20;2.88;;;;;;;;;;5038707;28;20132;-61
2023/09/28 07:18:28;;;;;;;10.48;2.95;;;;;;;;;;5048140;28;20533;-61
2023/09/28 07:20:53;;;;;;;7.65;2.95;;;;;;;;;;5046031;28;20101;-61
2023/09/28 07:23:18;;;;;;;7.05;2.72;;;;;;;;;;5045980;28;20116;-61
2023/09/28 07:25:44;;;;;;;7.53;3.00;;;;;;;;;;5046327;28;20559;-62
2023/09/28 07:28:11;;;;;;;6.20;2.78;;;;;;;;;;5040956;28;20037;-63
2023/09/28 07:30:36;;;;;;;7.47;2.55;;;;;;;;;;5045591;28;20045;-62
2023/09/28 07:33:01;;;;;;;9.10;2.70;;;;;;;;;;5049174;28;20082;-62
2023/09/28 07:35:27;;;;;;;6.10;2.70;;;;;;;;;;5049900;28;20466;-61
2023/09/28 07:37:52;;;;;;;6.95;2.92;;;;;;;;;;5043475;28;20037;-61
2023/09/28 07:40:22;;;;;;;5.97;2.80;;;;;;;;;;5040528;28;20440;-61
2023/09/28 07:42:47;;;;;;;9.63;2.67;;;;;;;;;;5045233;28;20096;-63
2023/09/28 07:45:13;;;;;;;8.05;2.58;;;;;;;;;;5037480;28;20025;-63
2023/09/28 07:47:39;;;;;;;6.88;2.38;;;;;;;;;;5045276;28;20045;-65
2023/09/28 07:50:05;;;;;;;7.90;2.85;;;;;;;;;;5045750;28;20029;-62
2023/09/28 07:52:30;;;;;;;8.27;2.60;;;;;;;;;;5054627;28;20119;-67
2023/09/28 07:54:56;;;;;;;4.78;2.45;;;;;;;;;;5031210;28;20116;-63
2023/09/28 07:57:22;;;;;;;8.45;2.80;;;;;;;;;;5044786;28;20044;-61
2023/09/28 07:59:47;;;;;;;8.27;2.85;;;;;;;;;;5049583;28;20062;-64
2023/09/28 08:02:13;;;;;;;6.85;2.70;;;;;;;;;;5045400;28;20138;-62
2023/09/28 08:04:38;;;;;;;8.37;2.83;;;;;;;;;;5052393;28;20040;-62
2023/09/28 08:07:04;;;;;;;9.95;2.42;;;;;;;;;;5043954;28;20279;-61
2023/09/28 08:09:30;;;;;;;6.45;2.58;;;;;;;;;;5040253;28;20076;-63
2023/09/28 08:11:55;;;;;;;7.55;2.25;;;;;;;;;;5043191;28;20041;-63
2023/09/28 08:14:21;;;;;;;8.25;2.50;;;;;;;;;;5032682;28;20042;-62
2023/09/28 08:16:46;;;;;;;6.70;2.70;;;;;;;;;;5040126;28;20441;-63
2023/09/28 08:19:12;;;;;;;7.60;2.50;;;;;;;;;;5034704;28;20045;-63
2023/09/28 08:21:38;;;;;;;6.72;2.70;;;;;;;;;;5042151;28;20494;-62
2023/09/28 08:24:04;;;;;;;6.22;2.25;;;;;;;;;;5046525;28;20033;-62
2023/09/28 08:26:30;;;;;;;4.90;2.40;;;;;;;;;;5045543;28;20250;-62
2023/09/28 08:28:57;;;;;;;5.10;2.42;;;;;;;;;;5044727;28;20044;-64
2023/09/28 08:31:23;;;;;;;4.68;2.38;;;;;;;;;;5046349;28;20457;-61
2023/09/28 08:33:49;;;;;;;5.30;2.30;;;;;;;;;;5046486;28;20029;-63
2023/09/28 08:36:14;;;;;;;5.97;2.17;;;;;;;;;;5036496;28;20055;-62
2023/09/28 08:38:40;;;;;;;4.97;2.05;;;;;;;;;;5042344;28;20053;-62
2023/09/28 08:41:06;;;;;;;5.73;2.40;;;;;;;;;;5042885;28;20032;-63
2023/09/28 08:43:34;;;;;;;6.10;2.20;;;;;;;;;;5043209;28;20687;-64
2023/09/28 08:46:00;;;;;;;7.13;2.47;;;;;;;;;;5031027;28;20899;-61
2023/09/28 08:48:27;;;;;;;6.30;2.38;;;;;;;;;;5043517;28;20790;-63
2023/09/28 08:50:54;;;;;;;4.20;2.03;;;;;;;;;;5037350;28;20466;-63
2023/09/28 08:53:19;;;;;;;4.97;2.42;;;;;;;;;;5039199;28;20037;-61
2023/09/28 08:55:44;;;;;;;6.63;2.47;;;;;;;;;;5043761;28;20041;-63
2023/09/28 08:58:10;;;;;;;8.10;2.30;;;;;;;;;;5044799;28;20302;-62
2023/09/28 09:00:36;;;;;;;6.47;2.78;;;;;;;;;;5049796;28;20074;-63
2023/09/28 09:03:01;;;;;;;5.80;2.10;;;;;;;;;;5027167;28;20546;-62
2023/09/28 09:05:29;;;;;;;4.72;2.58;;;;;;;;;;5049330;28;20120;-62
2023/09/28 09:07:55;;;;;;;5.47;2.45;;;;;;;;;;5044591;28;20215;-62
2023/09/28 09:10:21;;;;;;;5.05;2.25;;;;;;;;;;5043157;28;20523;-62
2023/09/28 09:12:47;;;;;;;5.30;2.00;;;;;;;;;;5039395;28;20045;-61
2023/09/28 09:15:13;;;;;;;4.72;1.90;;;;;;;;;;5033936;28;20549;-64
2023/09/28 09:17:38;;;;;;;6.32;2.00;;;;;;;;;;5043940;28;20063;-63
2023/09/28 09:20:08;;;;;;;4.43;2.30;;;;;;;;;;5044571;28;20036;-63
2023/09/28 09:22:33;;;;;;;5.05;2.35;;;;;;;;;;5044164;28;20272;-62
2023/09/28 09:24:58;;;;;;;5.83;2.57;;;;;;;;;;5046774;28;20041;-62
2023/09/28 09:27:24;;;;;;;5.57;2.35;;;;;;;;;;5045064;28;20861;-63
2023/09/28 09:29:49;;;;;;;5.13;2.15;;;;;;;;;;5039108;28;20044;-63
2023/09/28 09:32:16;;;;;;;3.23;2.27;;;;;;;;;;5042985;28;20422;-63
2023/09/28 09:34:41;;;;;;;6.00;2.63;;;;;;;;;;5043456;28;20291;-64
2023/09/28 09:37:09;;;;;;;4.50;2.10;;;;;;;;;;5031998;28;20033;-64
2023/09/28 09:39:34;;;;;;;5.65;2.38;;;;;;;;;;5043173;28;20075;-63
2023/09/28 09:41:59;;;;;;;5.03;2.10;;;;;;;;;;5044194;28;20515;-63
2023/09/28 09:44:26;;;;;;;4.03;1.92;;;;;;;;;;5040707;28;20119;-62
2023/09/28 09:46:52;;;;;;;4.20;2.05;;;;;;;;;;5028451;28;20048;-63
2023/09/28 09:49:18;;;;;;;4.40;2.20;;;;;;;;;;5043950;28;20033;-60
2023/09/28 09:51:45;;;;;;;5.25;2.08;;;;;;;;;;5042284;28;20044;-64
2023/09/28 09:54:11;;;;;;;4.43;1.95;;;;;;;;;;5048012;28;20032;-64
2023/09/28 09:56:36;;;;;;;5.68;2.10;;;;;;;;;;5048124;22;20583;-74
2023/09/28 09:59:02;;;;;;;4.90;2.43;;;;;;;;;;5029198;28;20139;-76
2023/09/28 10:01:27;;;;;;;5.03;2.20;;;;;;;;;;5050792;28;20662;-75
2023/09/28 10:03:52;;;;;;;5.77;2.10;;;;;;;;;;5032831;28;20373;-73
2023/09/28 10:06:19;;;;;;;4.40;2.33;;;;;;;;;;5049985;28;20283;-75
2023/09/28 10:08:45;;;;;;;6.85;2.60;;;;;;;;;;5047225;28;20276;-74
2023/09/28 10:11:11;;;;;;;7.22;2.47;;;;;;;;;;5047989;28;20025;-75
2023/09/28 10:13:36;;;;;;;4.40;1.98;;;;;;;;;;5026840;28;20523;-74
2023/09/28 10:16:02;;;;;;;5.00;2.30;;;;;;;;;;5041251;28;20041;-71
2023/09/28 10:18:29;;;;;;;6.72;2.50;;;;;;;;;;5036436;28;20037;-72
2023/09/28 10:20:54;;;;;;;7.97;2.35;;;;;;;;;;5045304;28;20223;-71
2023/09/28 10:23:23;;;;;;;8.55;2.70;;;;;;;;;;5039391;28;20112;-72
2023/09/28 10:26:12;;;;;;;4.70;2.58;;;;;;;;;;5052445;28;20036;-71
2023/09/28 10:29:13;;;;;;;7.40;2.50;;;;;;;;;;5031921;28;20033;-70
2023/09/28 10:31:39;;;;;;;5.43;2.60;;;;;;;;;;4981814;28;20076;-71
2023/09/28 10:34:05;;;;;;;6.45;2.92;;;;;;;;;;5035781;28;20025;-74
2023/09/28 10:36:33;;;;;;;6.30;2.60;;;;;;;;;;5047059;28;20919;-73
2023/09/28 10:39:25;;;;;;;5.78;2.85;;;;;;;;;;5041995;28;20044;-72
2023/09/28 10:41:53;;;;;;;7.55;2.42;;;;;;;;;;5043323;28;20094;-71
2023/09/28 10:44:20;;;;;;;3.95;2.40;;;;;;;;;;5042805;28;20037;-73
2023/09/28 10:46:47;;;;;;;7.38;2.90;;;;;;;;;;5045830;28;20111;-70
2023/09/28 10:49:22;;;;;;;7.20;2.83;;;;;;;;;;5043169;28;20037;-71
2023/09/28 10:51:47;;;;;;;7.15;2.63;;;;;;;;;;5045684;28;20048;-71
2023/09/28 10:54:13;;;;;;;5.75;2.65;;;;;;;;;;5047682;28;20025;-70
2023/09/28 10:56:38;;;;;;;6.78;2.75;;;;;;;;;;5045691;28;20065;-70
2023/09/28 10:59:05;;;;;;;8.57;2.88;;;;;;;;;;5045433;28;20065;-71
2023/09/28 11:01:31;;;;;;;8.45;2.70;;;;;;;;;;5046835;28;20033;-71
2023/09/28 11:03:56;;;;;;;6.20;2.55;;;;;;;;;;5046755;28;20037;-71
2023/09/28 11:06:22;;;;;;;6.80;2.70;;;;;;;;;;5044222;28;20036;-71
2023/09/28 11:08:48;;;;;;;5.93;2.75;;;;;;;;;;5044052;28;21133;-71
2023/09/28 11:11:14;;;;;;;5.88;2.33;;;;;;;;;;5044741;28;20025;-73
2023/09/28 11:13:40;;;;;;;8.45;2.75;;;;;;;;;;5045477;28;20083;-72
2023/09/28 11:16:05;;;;;;;7.22;2.53;;;;;;;;;;5039526;28;20029;-71
2023/09/28 11:18:31;;;;;;;6.90;2.40;;;;;;;;;;5047079;28;20041;-72
2023/09/28 11:20:57;;;;;;;5.95;2.42;;;;;;;;;;5045437;28;20276;-72
2023/09/28 11:23:22;;;;;;;6.53;2.20;;;;;;;;;;5047005;28;20033;-72
2023/09/28 11:25:47;;;;;;;3.85;2.15;;;;;;;;;;5044833;28;20113;-72
2023/09/28 11:28:13;;;;;;;4.68;2.22;;;;;;;;;;5045339;28;20463;-72
2023/09/28 11:30:38;;;;;;;6.63;2.50;;;;;;;;;;5040928;28;20032;-71
2023/09/28 11:33:04;;;;;;;6.70;2.47;;;;;;;;;;5045659;28;20040;-74
2023/09/28 11:35:31;;;;;;;5.15;2.33;;;;;;;;;;5045872;28;20082;-72
2023/09/28 11:37:59;;;;;;;4.63;2.75;;;;;;;;;;5035976;28;20492;-72
2023/09/28 11:40:24;;;;;;;5.75;2.58;;;;;;;;;;5043324;28;20033;-73
2023/09/28 11:42:51;;;;;;;7.80;2.40;;;;;;;;;;5034744;28;20042;-73
2023/09/28 11:45:17;;;;;;;9.25;2.03;;;;;;;;;;5040243;28;20292;-72
2023/09/28 11:47:45;;;;;;;7.32;2.45;;;;;;;;;;5044366;28;20063;-71
2023/09/28 11:50:10;;;;;;;5.72;2.35;;;;;;;;;;5044134;28;20045;-72
2023/09/28 11:52:36;;;;;;;5.68;2.55;;;;;;;;;;5042256;28;20344;-71
2023/09/28 11:55:03;;;;;;;5.65;2.50;;;;;;;;;;5043965;28;20515;-72
2023/09/28 11:57:28;;;;;;;6.03;2.58;;;;;;;;;;5043844;28;20044;-73
2023/09/28 11:59:53;;;;;;;5.73;2.67;;;;;;;;;;5044903;28;20048;-72
2023/09/28 12:02:19;;;;;;;5.68;2.47;;;;;;;;;;5044871;28;20279;-72
2023/09/28 12:04:45;;;;;;;6.65;2.53;;;;;;;;;;5032920;28;20113;-72
2023/09/28 12:07:10;;;;;;;5.97;2.50;;;;;;;;;;5044536;28;20184;-73
2023/09/28 12:09:36;;;;;;;6.70;2.63;;;;;;;;;;5046588;28;20095;-72
2023/09/28 12:12:01;;;;;;;4.28;2.25;;;;;;;;;;5044603;28;21056;-71
2023/09/28 12:14:26;;;;;;;6.75;2.05;;;;;;;;;;5044565;28;20422;-74
2023/09/28 12:16:54;;;;;;;6.07;2.67;;;;;;;;;;5044734;28;20441;-74
2023/09/28 12:19:19;;;;;;;6.10;2.40;;;;;;;;;;5045572;28;20386;-74
2023/09/28 12:21:45;;;;;;;7.60;2.90;;;;;;;;;;5040139;28;20132;-74
2023/09/28 12:24:10;;;;;;;4.40;2.40;;;;;;;;;;5040703;28;20061;-72
2023/09/28 12:26:36;;;;;;;6.75;2.50;;;;;;;;;;5035336;28;20034;-74
2023/09/28 12:29:01;;;;;;;6.38;2.67;;;;;;;;;;5042772;28;20029;-74
2023/09/28 12:31:27;;;;;;;5.63;2.83;;;;;;;;;;5044512;28;20650;-73
2023/09/28 12:33:54;;;;;;;7.13;2.83;;;;;;;;;;5044630;28;20033;-73
2023/09/28 12:36:20;;;;;;;8.90;2.72;;;;;;;;;;5043798;28;20271;-72
2023/09/28 12:38:47;;;;;;;5.15;2.55;;;;;;;;;;5033459;28;20087;-73
2023/09/28 12:41:13;;;;;;;8.25;2.70;;;;;;;;;;5042709;28;20032;-71
2023/09/28 12:43:38;;;;;;;6.10;2.33;;;;;;;;;;5038404;28;20512;-75
2023/09/28 12:46:07;;;;;;;7.40;2.57;;;;;;;;;;5039054;28;20286;-73
2023/09/28 12:48:33;;;;;;;7.57;2.47;;;;;;;;;;5040708;28;20314;-74
2023/09/28 12:50:58;;;;;;;5.63;2.60;;;;;;;;;;5045161;28;20040;-73
2023/09/28 12:53:26;;;;;;;7.23;2.70;;;;;;;;;;5044660;28;20044;-73
2023/09/28 12:55:51;;;;;;;7.35;2.58;;;;;;;;;;5042746;28;20718;-74
2023/09/28 12:58:16;;;;;;;6.37;2.53;;;;;;;;;;5038617;28;20103;-72
2023/09/28 13:00:42;;;;;;;5.22;2.50;;;;;;;;;;5042221;28;21014;-72
2023/09/28 13:03:08;;;;;;;5.93;2.35;;;;;;;;;;5043294;28;20040;-73
2023/09/28 13:05:35;;;;;;;7.93;2.83;;;;;;;;;;5044162;28;20025;-73
2023/09/28 13:08:00;;;;;;;7.32;2.47;;;;;;;;;;5045028;28;20025;-74
2023/09/28 13:10:28;;;;;;;6.80;2.35;;;;;;;;;;5043486;28;20029;-72
2023/09/28 13:12:53;;;;;;;7.88;2.72;;;;;;;;;;5044846;28;20104;-72
2023/09/28 13:15:22;;;;;;;7.93;2.60;;;;;;;;;;5045179;28;20127;-72
2023/09/28 13:17:47;;;;;;;6.47;2.47;;;;;;;;;;5043301;28;20037;-72
2023/09/28 13:20:24;;;;;;;6.17;2.50;;;;;;;;;;5042018;28;20037;-72
2023/09/28 13:22:52;;;;;;;7.47;2.47;;;;;;;;;;5043375;28;21085;-72
2023/09/28 13:25:18;;;;;;;9.98;2.72;;;;;;;;;;5041856;28;20033;-73
2023/09/28 13:27:43;;;;;;;6.40;2.10;;;;;;;;;;5040483;28;20064;-72
2023/09/28 13:30:11;;;;;;;7.67;2.40;;;;;;;;;;5044867;28;20040;-73
2023/09/28 13:32:37;;;;;;;7.13;2.17;;;;;;;;;;5043464;28;20450;-73
2023/09/28 13:35:05;;;;;;;4.95;2.60;;;;;;;;;;5048776;28;20064;-72
2023/09/28 13:37:32;;;;;;;6.82;2.85;;;;;;;;;;5048602;28;20033;-74
2023/09/28 13:39:57;;;;;;;4.75;2.30;;;;;;;;;;5048258;28;20777;-72
2023/09/28 13:42:23;;;;;;;6.20;2.77;;;;;;;;;;5047954;28;20585;-73
2023/09/28 13:44:48;;;;;;;7.85;2.72;;;;;;;;;;5048365;28;20341;-74
2023/09/28 13:47:13;;;;;;;7.07;2.93;;;;;;;;;;5047999;28;20048;-74
2023/09/28 13:49:39;;;;;;;6.50;2.50;;;;;;;;;;5048385;28;20322;-73
2023/09/28 13:52:05;;;;;;;5.32;2.45;;;;;;;;;;5045921;28;20054;-73
2023/09/28 13:54:30;;;;;;;9.40;2.85;;;;;;;;;;5029536;28;20037;-74
2023/09/28 13:56:59;;;;;;;4.70;2.20;;;;;;;;;;5043373;28;20431;-73
2023/09/28 13:59:25;;;;;;;7.72;3.20;;;;;;;;;;5036647;28;20133;-73
2023/09/28 14:01:51;;;;;;;4.80;2.47;;;;;;;;;;5047665;28;20096;-76
2023/09/28 14:04:17;;;;;;;8.57;2.80;;;;;;;;;;5058295;28;20029;-76
2023/09/28 14:06:42;;;;;;;8.65;2.90;;;;;;;;;;5033307;28;20124;-75
2023/09/28 14:09:18;;;;;;;7.90;2.80;;;;;;;;;;5049939;28;20040;-75
2023/09/28 14:11:43;;;;;;;6.97;2.50;;;;;;;;;;5047551;28;20282;-75
2023/09/28 14:14:12;;;;;;;6.13;2.63;;;;;;;;;;5048749;28;20494;-75
2023/09/28 14:16:38;;;;;;;7.00;2.60;;;;;;;;;;5049873;28;20025;-76
2023/09/28 14:19:03;;;;;;;6.85;2.40;;;;;;;;;;5048492;28;20068;-77
2023/09/28 14:21:29;;;;;;;5.63;2.65;;;;;;;;;;5031395;28;20102;-76
2023/09/28 14:23:55;;;;;;;7.88;2.70;;;;;;;;;;5048065;28;20469;-75
2023/09/28 14:26:20;;;;;;;6.90;2.67;;;;;;;;;;5031890;28;20544;-75
2023/09/28 14:28:45;;;;;;;7.32;2.40;;;;;;;;;;5047857;28;20041;-75
2023/09/28 14:31:11;;;;;;;5.68;2.88;;;;;;;;;;5048581;28;20040;-76
2023/09/28 14:33:36;;;;;;;6.18;2.60;;;;;;;;;;5030921;28;20044;-76
2023/09/28 14:36:02;;;;;;;4.30;2.50;;;;;;;;;;5049588;28;20037;-77